createdAt,value
2023-03-15T00:01:31.503Z,88.33
2023-03-15T00:04:00.463Z,88.62
2023-03-15T00:06:29.677Z,88.90
2023-03-15T00:08:58.790Z,89.47
2023-03-15T00:11:31.386Z,89.81
2023-03-15T00:14:01.603Z,90.15
2023-03-15T00:16:33.318Z,90.20
2023-03-15T00:19:03.586Z,90.68
2023-03-15T00:21:33.441Z,91.11
2023-03-15T00:24:02.433Z,91.65
2023-03-15T00:26:32.220Z,92.08
2023-03-15T00:29:01.465Z,92.47
2023-03-15T00:31:33.723Z,92.76
2023-03-15T00:34:02.853Z,93.21
2023-03-15T00:36:32.749Z,93.43
2023-03-15T00:39:02.345Z,93.61
2023-03-15T00:41:32.758Z,93.79
2023-03-15T00:44:06.993Z,94.04
2023-03-15T00:46:36.450Z,94.78
2023-03-15T00:49:05.744Z,94.78
2023-03-15T00:51:35.632Z,95.47
2023-03-15T00:54:04.565Z,95.70
2023-03-15T00:56:38.069Z,96.06
2023-03-15T00:59:07.606Z,96.27
2023-03-15T01:01:36.817Z,96.62
2023-03-15T01:04:07.158Z,96.68
2023-03-15T01:06:36.557Z,96.97
2023-03-15T01:09:06.241Z,97.40
2023-03-15T01:11:37.877Z,97.63
2023-03-15T01:14:09.387Z,97.86
2023-03-15T01:16:41.154Z,98.14
2023-03-15T01:19:14.628Z,98.64
2023-03-15T01:21:44.785Z,99.01
2023-03-15T01:24:14.873Z,99.08
2023-03-15T01:26:43.644Z,99.34
2023-03-15T01:29:14.077Z,99.50
2023-03-15T01:31:46.805Z,99.80
2023-03-15T01:34:17.102Z,99.93
2023-03-15T01:36:52.896Z,99.95
2023-03-15T01:39:23.721Z,99.93
2023-03-15T01:41:52.546Z,99.98
2023-03-15T01:44:22.493Z,99.99
2023-03-15T01:46:51.529Z,99.98
2023-03-15T01:49:30.316Z,100.00
2023-03-15T01:52:06.622Z,100.00
2023-03-15T01:55:05.876Z,100.00
2023-03-15T01:57:39.426Z,100.00
2023-03-15T02:00:15.839Z,100.00
2023-03-15T02:03:05.367Z,100.00
2023-03-15T02:05:37.611Z,100.00
2023-03-15T02:08:08.556Z,100.00
2023-03-15T02:10:52.217Z,100.00
2023-03-15T02:13:23.945Z,100.00
2023-03-15T02:15:53.997Z,100.00
2023-03-15T02:18:39.778Z,100.00
2023-03-15T02:21:25.227Z,100.00
2023-03-15T02:24:33.632Z,100.00
2023-03-15T02:27:02.906Z,100.00
2023-03-15T02:29:32.107Z,100.00
2023-03-15T02:32:06.283Z,100.00
2023-03-15T02:34:36.467Z,100.00
2023-03-15T02:37:05.399Z,100.00
2023-03-15T02:39:34.459Z,100.00
2023-03-15T02:42:03.479Z,100.00
2023-03-15T02:44:38.597Z,100.00
2023-03-15T02:47:20.939Z,100.00
2023-03-15T02:49:51.444Z,100.00
2023-03-15T02:52:21.629Z,100.00
2023-03-15T02:54:50.776Z,100.00
2023-03-15T02:57:20.914Z,100.00
2023-03-15T02:59:51.242Z,100.00
2023-03-15T03:02:26.464Z,100.00
2023-03-15T03:04:55.567Z,100.00
2023-03-15T03:07:24.273Z,100.00
2023-03-15T03:09:59.429Z,100.00
2023-03-15T03:12:29.368Z,100.00
2023-03-15T03:15:04.127Z,100.00
2023-03-15T03:17:37.791Z,100.00
2023-03-15T03:20:12.069Z,100.00
2023-03-15T03:22:45.268Z,100.00
2023-03-15T03:25:14.771Z,100.00
2023-03-15T03:27:48.390Z,100.00
2023-03-15T03:30:17.970Z,100.00
2023-03-15T03:32:51.293Z,100.00
2023-03-15T03:35:21.784Z,100.00
2023-03-15T03:37:54.218Z,100.00
2023-03-15T03:40:36.124Z,100.00
2023-03-15T03:43:07.894Z,100.00
2023-03-15T03:45:36.852Z,100.00
2023-03-15T03:48:07.187Z,100.00
2023-03-15T03:50:36.306Z,100.00
2023-03-15T03:53:06.951Z,100.00
2023-03-15T03:55:38.455Z,100.00
2023-03-15T03:58:10.204Z,100.00
2023-03-15T04:00:46.703Z,100.00
2023-03-15T04:03:15.763Z,100.00
2023-03-15T04:05:49.043Z,100.00
2023-03-15T04:08:23.265Z,100.00
2023-03-15T04:10:57.453Z,100.00
2023-03-15T04:13:30.378Z,100.00
2023-03-15T04:16:04.177Z,100.00
2023-03-15T04:18:45.063Z,100.00
2023-03-15T04:21:14.570Z,100.00
2023-03-15T04:23:45.653Z,100.00
2023-03-15T04:26:20.487Z,100.00
2023-03-15T04:28:59.749Z,100.00
2023-03-15T04:32:02.132Z,100.00
2023-03-15T04:34:51.668Z,100.00
2023-03-15T04:37:50.579Z,100.00
2023-03-15T04:40:38.924Z,100.00
2023-03-15T04:43:26.707Z,100.00
2023-03-15T04:46:11.298Z,100.00
2023-03-15T04:48:58.890Z,100.00
2023-03-15T04:51:56.769Z,100.00
2023-03-15T04:54:35.479Z,100.00
2023-03-15T04:57:23.117Z,100.00
2023-03-15T05:00:08.080Z,100.00
2023-03-15T05:02:56.249Z,100.00
2023-03-15T05:05:34.677Z,100.00
2023-03-15T05:08:39.977Z,100.00
2023-03-15T05:11:18.996Z,100.00
2023-03-15T05:13:55.837Z,100.00
2023-03-15T05:16:35.729Z,100.00
2023-03-15T05:19:28.841Z,100.00
2023-03-15T05:22:09.711Z,100.00
2023-03-15T05:24:46.652Z,100.00
2023-03-15T05:27:35.491Z,100.00
2023-03-15T05:30:23.819Z,100.00
2023-03-15T05:33:07.106Z,100.00
2023-03-15T05:35:49.267Z,100.00
2023-03-15T05:38:35.579Z,100.00
2023-03-15T05:41:25.189Z,100.00
2023-03-15T05:44:17.271Z,100.00
2023-03-15T05:47:19.070Z,100.00
2023-03-15T05:50:03.989Z,100.00
2023-03-15T05:52:57.634Z,100.00
2023-03-15T05:55:37.521Z,100.00
2023-03-15T05:58:20.862Z,100.00
2023-03-15T06:01:21.569Z,100.00
2023-03-15T06:04:15.721Z,100.00
2023-03-15T06:06:45.650Z,100.00
2023-03-15T06:09:14.777Z,100.00
2023-03-15T06:11:45.856Z,100.00
2023-03-15T06:14:14.916Z,100.00
2023-03-15T06:16:54.034Z,100.00
2023-03-15T06:19:25.166Z,100.00
2023-03-15T06:21:55.714Z,100.00
2023-03-15T06:24:32.973Z,100.00
2023-03-15T06:27:02.062Z,100.00
2023-03-15T06:29:31.099Z,100.00
2023-03-15T06:32:01.234Z,100.00
2023-03-15T06:34:30.895Z,100.00
2023-03-15T06:37:01.759Z,100.00
2023-03-15T06:39:34.925Z,100.00
2023-03-15T06:42:05.425Z,100.00
2023-03-15T06:44:35.853Z,100.00
2023-03-15T06:47:08.708Z,100.00
2023-03-15T06:49:41.639Z,100.00
2023-03-15T06:52:12.127Z,100.00
2023-03-15T06:54:41.232Z,100.00
2023-03-15T06:57:10.306Z,100.00
2023-03-15T06:59:40.024Z,100.00
2023-03-15T07:02:19.166Z,100.00
2023-03-15T07:04:48.599Z,100.00
2023-03-15T07:07:23.094Z,100.00
2023-03-15T07:09:52.984Z,100.00
2023-03-15T07:12:23.343Z,100.00
2023-03-15T07:14:54.944Z,100.00
2023-03-15T07:17:23.964Z,100.00
2023-03-15T07:19:56.673Z,100.00
2023-03-15T07:22:27.159Z,100.00
2023-03-15T07:24:56.145Z,100.00
2023-03-15T07:27:25.923Z,100.00
2023-03-15T07:29:56.064Z,100.00
2023-03-15T07:32:25.531Z,100.00
2023-03-15T07:34:58.793Z,100.00
2023-03-15T07:37:29.807Z,100.00
2023-03-15T07:40:01.076Z,100.00
2023-03-15T07:42:30.298Z,100.00
2023-03-15T07:45:01.291Z,100.00
2023-03-15T07:47:33.988Z,100.00
2023-03-15T07:50:05.895Z,99.50
2023-03-15T07:52:34.980Z,98.23
2023-03-15T07:55:08.907Z,97.42
2023-03-15T07:57:38.378Z,96.49
2023-03-15T08:00:14.159Z,93.20
2023-03-15T08:02:43.705Z,91.97
2023-03-15T08:05:12.780Z,92.02
2023-03-15T08:07:42.997Z,89.57
2023-03-15T08:10:12.620Z,87.51
2023-03-15T08:12:44.817Z,86.69
2023-03-15T08:15:14.319Z,86.61
2023-03-15T08:17:44.689Z,86.93
2023-03-15T08:20:18.241Z,85.64
2023-03-15T08:22:49.380Z,86.34
2023-03-15T08:25:20.861Z,86.36
2023-03-15T08:27:50.601Z,84.70
2023-03-15T08:30:21.464Z,83.46
2023-03-15T08:32:53.048Z,83.99
2023-03-15T08:35:25.342Z,82.87
2023-03-15T08:37:57.696Z,83.86
2023-03-15T08:40:26.953Z,83.41
2023-03-15T08:42:56.793Z,83.63
2023-03-15T08:45:26.998Z,83.59
2023-03-15T08:47:59.487Z,83.85
2023-03-15T08:50:35.272Z,84.05
2023-03-15T08:53:05.046Z,83.78
2023-03-15T08:55:34.351Z,83.27
2023-03-15T08:58:04.922Z,82.04
2023-03-15T09:00:34.656Z,81.43
2023-03-15T09:03:04.294Z,81.75
2023-03-15T09:05:33.320Z,80.79
2023-03-15T09:08:02.591Z,81.27
2023-03-15T09:10:32.202Z,81.22
2023-03-15T09:13:01.239Z,81.90
2023-03-15T09:15:30.977Z,81.87
2023-03-15T09:18:00.206Z,81.22
2023-03-15T09:20:30.090Z,81.32
2023-03-15T09:23:01.750Z,81.48
2023-03-15T09:25:31.777Z,80.92
2023-03-15T09:28:00.964Z,81.02
2023-03-15T09:30:30.918Z,81.16
2023-03-15T09:33:01.275Z,80.68
2023-03-15T09:35:30.588Z,81.32
2023-03-15T09:38:01.146Z,80.91
2023-03-15T09:40:35.137Z,80.56
2023-03-15T09:43:15.510Z,81.56
2023-03-15T09:46:03.474Z,81.68
2023-03-15T09:48:44.940Z,82.11
2023-03-15T09:51:56.150Z,81.90
2023-03-15T09:54:41.685Z,81.97
2023-03-15T09:57:24.443Z,82.62
2023-03-15T09:59:58.049Z,82.96
2023-03-15T10:02:31.078Z,82.42
2023-03-15T10:05:27.930Z,82.16
2023-03-15T10:07:57.133Z,82.03
2023-03-15T10:10:32.693Z,82.66
2023-03-15T10:13:09.965Z,83.48
2023-03-15T10:15:39.351Z,83.77
2023-03-15T10:18:27.366Z,84.07
2023-03-15T10:21:39.742Z,84.55
2023-03-15T10:24:40.387Z,84.82
2023-03-15T10:27:17.307Z,83.83
2023-03-15T10:29:46.244Z,83.18
2023-03-15T10:32:18.383Z,84.05
2023-03-15T10:34:52.646Z,82.45
2023-03-15T10:37:25.436Z,82.60
2023-03-15T10:39:59.220Z,82.50
2023-03-15T10:42:32.882Z,79.77
2023-03-15T10:45:21.586Z,79.68
2023-03-15T10:47:59.565Z,79.97
2023-03-15T10:50:35.672Z,80.48
2023-03-15T10:53:11.519Z,81.10
2023-03-15T10:55:45.308Z,80.68
2023-03-15T10:58:28.933Z,79.76
2023-03-15T11:01:08.089Z,76.38
2023-03-15T11:03:38.569Z,75.09
2023-03-15T11:06:26.845Z,76.54
2023-03-15T11:09:12.296Z,76.15
2023-03-15T11:12:04.940Z,76.69
2023-03-15T11:14:41.429Z,76.71
2023-03-15T11:17:18.661Z,76.69
2023-03-15T11:20:10.497Z,77.88
2023-03-15T11:22:48.215Z,76.02
2023-03-15T11:25:17.691Z,75.36
2023-03-15T11:27:51.571Z,75.91
2023-03-15T11:30:24.470Z,76.48
2023-03-15T11:32:54.222Z,75.93
2023-03-15T11:35:34.140Z,75.41
2023-03-15T11:38:15.701Z,75.41
2023-03-15T11:40:48.576Z,75.28
2023-03-15T11:43:28.472Z,75.42
2023-03-15T11:45:59.934Z,75.37
2023-03-15T11:48:51.239Z,74.97
2023-03-15T11:51:21.244Z,75.73
2023-03-15T11:54:15.530Z,76.17
2023-03-15T11:56:58.542Z,76.38
2023-03-15T11:59:30.834Z,77.12
2023-03-15T12:02:06.882Z,77.29
2023-03-15T12:04:35.937Z,77.69
2023-03-15T12:07:16.732Z,78.44
2023-03-15T12:09:53.209Z,78.72
2023-03-15T12:12:26.235Z,78.67
2023-03-15T12:15:20.232Z,78.98
2023-03-15T12:18:00.936Z,79.19
2023-03-15T12:20:50.819Z,78.21
2023-03-15T12:23:20.095Z,78.31
2023-03-15T12:26:07.888Z,78.48
2023-03-15T12:28:50.266Z,79.00
2023-03-15T12:31:19.364Z,79.22
2023-03-15T12:33:51.840Z,79.71
2023-03-15T12:36:39.986Z,79.01
2023-03-15T12:39:18.583Z,78.84
2023-03-15T12:41:49.416Z,78.35
2023-03-15T12:44:34.252Z,77.67
2023-03-15T12:47:04.710Z,77.32
2023-03-15T12:49:36.388Z,77.20
2023-03-15T12:52:11.380Z,78.03
2023-03-15T12:55:12.358Z,78.40
2023-03-15T12:57:50.149Z,78.72
2023-03-15T13:00:23.166Z,78.25
2023-03-15T13:03:22.746Z,78.37
2023-03-15T13:06:03.765Z,78.42
2023-03-15T13:08:40.114Z,77.84
2023-03-15T13:11:19.735Z,78.65
2023-03-15T13:13:52.517Z,78.89
2023-03-15T13:16:40.492Z,78.53
2023-03-15T13:19:14.769Z,79.17
2023-03-15T13:22:15.854Z,79.26
2023-03-15T13:25:05.583Z,79.79
2023-03-15T13:27:51.492Z,80.09
2023-03-15T13:30:46.783Z,80.02
2023-03-15T13:33:22.796Z,80.01
2023-03-15T13:36:07.422Z,80.72
2023-03-15T13:38:47.482Z,81.26
2023-03-15T13:41:26.072Z,81.43
2023-03-15T13:43:57.110Z,81.47
2023-03-15T13:46:27.493Z,81.46
2023-03-15T13:48:56.803Z,81.78
2023-03-15T13:51:36.604Z,81.72
2023-03-15T13:54:08.452Z,82.76
2023-03-15T13:56:49.887Z,85.15
2023-03-15T13:59:19.183Z,86.18
2023-03-15T14:01:49.339Z,86.72
2023-03-15T14:04:21.588Z,87.29
2023-03-15T14:06:51.323Z,88.59
2023-03-15T14:09:24.701Z,88.79
2023-03-15T14:12:07.844Z,89.39
2023-03-15T14:14:49.619Z,89.45
2023-03-15T14:17:29.674Z,89.44
2023-03-15T14:20:09.328Z,89.57
2023-03-15T14:22:42.054Z,90.00
2023-03-15T14:25:21.737Z,90.25
2023-03-15T14:27:50.923Z,90.93
2023-03-15T14:30:24.723Z,91.58
2023-03-15T14:32:55.651Z,92.17
2023-03-15T14:35:26.605Z,92.22
2023-03-15T14:38:04.469Z,92.31
2023-03-15T14:40:36.183Z,92.55
2023-03-15T14:43:06.911Z,93.03
2023-03-15T14:45:37.142Z,93.40
2023-03-15T14:48:15.382Z,93.61
2023-03-15T14:50:45.352Z,93.96
2023-03-15T14:53:17.141Z,94.51
2023-03-15T14:55:49.592Z,94.77
2023-03-15T14:58:21.110Z,95.37
2023-03-15T15:00:51.836Z,95.56
2023-03-15T15:03:34.361Z,95.08
2023-03-15T15:06:03.503Z,95.01
2023-03-15T15:08:33.045Z,94.19
2023-03-15T15:11:03.174Z,94.12
2023-03-15T15:13:38.135Z,93.78
2023-03-15T15:16:08.004Z,93.80
2023-03-15T15:18:37.303Z,94.17
2023-03-15T15:21:13.445Z,94.29
2023-03-15T15:23:57.322Z,94.73
2023-03-15T15:26:30.412Z,95.73
2023-03-15T15:29:01.219Z,95.62
2023-03-15T15:31:34.602Z,96.16
2023-03-15T15:34:04.751Z,97.49
2023-03-15T15:36:35.526Z,97.40
2023-03-15T15:39:07.211Z,98.56
2023-03-15T15:41:36.174Z,99.34
2023-03-15T15:44:15.211Z,99.73
2023-03-15T15:46:44.017Z,100.00
2023-03-15T15:49:13.165Z,100.00
2023-03-15T15:51:46.755Z,100.00
2023-03-15T15:54:25.471Z,100.00
2023-03-15T15:56:58.855Z,100.00
2023-03-15T15:59:28.343Z,100.00
2023-03-15T16:02:02.212Z,100.00
2023-03-15T16:04:33.329Z,100.00
2023-03-15T16:07:02.892Z,100.00
2023-03-15T16:09:34.012Z,100.00
2023-03-15T16:12:03.622Z,100.00
2023-03-15T16:14:34.402Z,100.00
2023-03-15T16:17:03.426Z,100.00
2023-03-15T16:19:32.326Z,100.00
2023-03-15T16:22:01.196Z,100.00
2023-03-15T16:24:31.581Z,100.00
2023-03-15T16:27:03.856Z,100.00
2023-03-15T16:29:44.605Z,100.00
2023-03-15T16:32:19.299Z,100.00
2023-03-15T16:34:53.737Z,100.00
2023-03-15T16:37:42.088Z,100.00
2023-03-15T16:40:34.296Z,100.00
2023-03-15T16:43:09.011Z,100.00
2023-03-15T16:45:37.963Z,100.00
2023-03-15T16:48:09.317Z,100.00
2023-03-15T16:50:38.619Z,100.00
2023-03-15T16:53:08.205Z,100.00
2023-03-15T16:55:37.683Z,100.00
2023-03-15T16:58:18.195Z,100.00
2023-03-15T17:00:48.658Z,100.00
2023-03-15T17:03:17.964Z,100.00
2023-03-15T17:05:47.974Z,100.00
2023-03-15T17:08:20.061Z,100.00
2023-03-15T17:10:49.566Z,100.00
2023-03-15T17:13:26.920Z,100.00
2023-03-15T17:15:55.909Z,100.00
2023-03-15T17:18:24.951Z,100.00
2023-03-15T17:20:55.967Z,100.00
2023-03-15T17:23:25.683Z,100.00
2023-03-15T17:25:54.409Z,100.00
2023-03-15T17:28:24.573Z,100.00
2023-03-15T17:30:59.813Z,100.00
2023-03-15T17:33:38.955Z,100.00
2023-03-15T17:36:11.814Z,100.00
2023-03-15T17:38:43.964Z,100.00
2023-03-15T17:41:30.339Z,100.00
2023-03-15T17:44:00.139Z,100.00
2023-03-15T17:46:30.367Z,100.00
2023-03-15T17:49:01.043Z,100.00
2023-03-15T17:51:32.284Z,100.00
2023-03-15T17:54:01.726Z,100.00
2023-03-15T17:56:30.685Z,100.00
2023-03-15T17:58:59.660Z,100.00
2023-03-15T18:01:28.829Z,100.00
2023-03-15T18:04:06.374Z,100.00
2023-03-15T18:06:35.694Z,100.00
2023-03-15T18:09:09.790Z,100.00
2023-03-15T18:11:42.792Z,100.00
2023-03-15T18:14:15.388Z,100.00
2023-03-15T18:16:50.490Z,100.00
2023-03-15T18:19:19.440Z,100.00
2023-03-15T18:21:48.222Z,100.00
2023-03-15T18:24:18.103Z,100.00
2023-03-15T18:26:48.450Z,100.00
2023-03-15T18:29:17.164Z,100.00
2023-03-15T18:31:46.367Z,100.00
2023-03-15T18:34:22.303Z,100.00
2023-03-15T18:36:53.465Z,100.00
2023-03-15T18:39:25.471Z,100.00
2023-03-15T18:41:54.290Z,100.00
2023-03-15T18:44:23.304Z,100.00
2023-03-15T18:46:52.126Z,100.00
2023-03-15T18:49:21.673Z,100.00
2023-03-15T18:51:50.576Z,100.00
2023-03-15T18:54:25.625Z,100.00
2023-03-15T18:56:55.098Z,100.00
2023-03-15T18:59:25.838Z,100.00
2023-03-15T19:01:54.981Z,100.00
2023-03-15T19:04:24.257Z,100.00
2023-03-15T19:06:57.602Z,100.00
2023-03-15T19:09:26.605Z,100.00
2023-03-15T19:11:55.465Z,100.00
2023-03-15T19:14:31.361Z,100.00
2023-03-15T19:17:00.728Z,100.00
2023-03-15T19:19:30.105Z,100.00
2023-03-15T19:21:59.209Z,100.00
2023-03-15T19:24:29.180Z,100.00
2023-03-15T19:26:57.926Z,100.00
2023-03-15T19:29:26.664Z,100.00
2023-03-15T19:31:56.609Z,100.00
2023-03-15T19:34:34.194Z,100.00
2023-03-15T19:37:03.736Z,100.00
2023-03-15T19:39:32.643Z,100.00
2023-03-15T19:42:04.691Z,100.00
2023-03-15T19:44:33.847Z,100.00
2023-03-15T19:47:09.074Z,100.00
2023-03-15T19:49:38.232Z,100.00
2023-03-15T19:52:07.216Z,100.00
2023-03-15T19:54:36.610Z,100.00
2023-03-15T19:57:05.410Z,100.00
2023-03-15T19:59:40.392Z,100.00
2023-03-15T20:02:13.365Z,100.00
2023-03-15T20:04:46.056Z,100.00
2023-03-15T20:07:15.360Z,100.00
2023-03-15T20:09:44.573Z,100.00
2023-03-15T20:12:17.569Z,100.00
2023-03-15T20:14:46.594Z,100.00
2023-03-15T20:17:16.249Z,100.00
2023-03-15T20:19:47.769Z,100.00
2023-03-15T20:22:16.871Z,100.00
2023-03-15T20:24:46.033Z,100.00
2023-03-15T20:27:17.047Z,100.00
2023-03-15T20:29:45.868Z,100.00
2023-03-15T20:32:15.561Z,100.00
2023-03-15T20:34:44.545Z,100.00
2023-03-15T20:37:13.935Z,100.00
2023-03-15T20:39:43.948Z,100.00
2023-03-15T20:42:13.195Z,100.00
2023-03-15T20:44:43.170Z,100.00
2023-03-15T20:47:12.127Z,100.00
2023-03-15T20:49:49.413Z,100.00
2023-03-15T20:52:18.146Z,100.00
2023-03-15T20:54:46.980Z,100.00
2023-03-15T20:57:15.697Z,100.00
2023-03-15T20:59:44.506Z,100.00
2023-03-15T21:02:14.945Z,100.00
2023-03-15T21:04:44.929Z,100.00
2023-03-15T21:07:20.266Z,100.00
2023-03-15T21:09:50.701Z,100.00
2023-03-15T21:12:20.329Z,100.00
2023-03-15T21:14:49.939Z,100.00
2023-03-15T21:17:20.613Z,100.00
2023-03-15T21:19:49.716Z,100.00
2023-03-15T21:22:20.364Z,100.00
2023-03-15T21:24:55.923Z,100.00
2023-03-15T21:27:26.545Z,100.00
2023-03-15T21:29:57.593Z,100.00
2023-03-15T21:32:26.636Z,100.00
2023-03-15T21:34:57.567Z,100.00
2023-03-15T21:37:26.475Z,100.00
2023-03-15T21:39:55.448Z,100.00
2023-03-15T21:42:25.435Z,100.00
2023-03-15T21:44:54.183Z,100.00
2023-03-15T21:47:26.349Z,100.00
2023-03-15T21:49:56.082Z,100.00
2023-03-15T21:52:26.640Z,100.00
2023-03-15T21:54:59.218Z,100.00
2023-03-15T21:57:28.227Z,100.00
2023-03-15T21:59:58.595Z,100.00
2023-03-15T22:02:27.598Z,100.00
2023-03-15T22:04:57.135Z,100.00
2023-03-15T22:07:26.194Z,100.00
2023-03-15T22:09:55.134Z,100.00
2023-03-15T22:12:27.682Z,100.00
2023-03-15T22:15:05.576Z,100.00
2023-03-15T22:17:36.432Z,100.00
2023-03-15T22:20:17.341Z,100.00
2023-03-15T22:22:48.294Z,100.00
2023-03-15T22:25:17.533Z,100.00
2023-03-15T22:27:48.130Z,100.00
2023-03-15T22:30:19.330Z,100.00
2023-03-15T22:32:51.036Z,100.00
2023-03-15T22:35:20.915Z,100.00
2023-03-15T22:37:50.229Z,100.00
2023-03-15T22:40:19.670Z,100.00
2023-03-15T22:42:51.273Z,100.00
2023-03-15T22:45:21.174Z,100.00
2023-03-15T22:47:51.655Z,100.00
2023-03-15T22:50:22.363Z,100.00
2023-03-15T22:52:56.028Z,100.00
2023-03-15T22:55:25.380Z,100.00
2023-03-15T22:57:54.610Z,100.00
2023-03-15T23:00:24.220Z,100.00
2023-03-15T23:02:55.202Z,100.00
2023-03-15T23:05:24.448Z,100.00
2023-03-15T23:07:53.519Z,100.00
2023-03-15T23:10:22.721Z,100.00
2023-03-15T23:12:52.350Z,100.00
2023-03-15T23:15:21.553Z,100.00
2023-03-15T23:17:51.222Z,100.00
2023-03-15T23:20:20.867Z,100.00
2023-03-15T23:22:53.419Z,100.00
2023-03-15T23:25:22.951Z,100.00
2023-03-15T23:27:52.120Z,100.00
2023-03-15T23:30:21.581Z,100.00
2023-03-15T23:32:53.489Z,100.00
2023-03-15T23:35:27.147Z,100.00
2023-03-15T23:37:56.974Z,100.00
2023-03-15T23:40:26.502Z,100.00
2023-03-15T23:43:01.239Z,100.00
2023-03-15T23:45:30.705Z,100.00
2023-03-15T23:48:06.512Z,100.00
2023-03-15T23:50:38.047Z,100.00
2023-03-15T23:53:07.206Z,100.00
2023-03-15T23:55:36.722Z,100.00
2023-03-15T23:58:07.296Z,100.00
